Time;durP1;ratioP1;P1;durP2;ratioP2;P2;SDS_P1;SDS_P2;PMS_P1;PMS_P2;Temp;Humidity;BMP_temperature;BMP_pressure;BME280_temperature;BME280_humidity;BME280_pressure;Samples;Min_cycle;Max_cycle;Signal;HPM_P1;HPM_P2
2023/05/06 00:02:05;;;;;;;;;;;14.30;99.90;;;;;;8368643;28;19925;-72
2023/05/06 00:06:08;;;;;;;;;;;14.30;99.90;;;;;;8390955;28;20027;-72
2023/05/06 00:10:10;;;;;;;;;;;14.30;99.90;;;;;;8357962;28;20396;-72
2023/05/06 00:14:11;;;;;;;;;;;14.20;99.90;;;;;;8371454;28;19924;-72
2023/05/06 00:18:14;;;;;;;;;;;14.20;99.90;;;;;;8384396;28;19979;-72
2023/05/06 00:22:16;;;;;;;;;;;14.30;99.90;;;;;;8364962;28;19925;-72
2023/05/06 00:26:17;;;;;;;;;;;14.30;99.90;;;;;;8364027;28;19967;-72
2023/05/06 00:30:19;;;;;;;;;;;14.30;99.90;;;;;;8378603;28;19939;-72
2023/05/06 00:34:20;;;;;;;;;;;14.30;99.90;;;;;;8363467;28;20023;-72
2023/05/06 00:38:22;;;;;;;;;;;14.40;99.90;;;;;;8383724;28;19924;-72
2023/05/06 00:42:23;;;;;;;;;;;14.40;99.90;;;;;;8376555;28;20274;-72
2023/05/06 00:46:25;;;;;;;;;;;14.40;99.90;;;;;;8393524;28;19936;-72
2023/05/06 00:50:28;;;;;;;;;;;14.40;99.90;;;;;;8376340;28;19928;-72
2023/05/06 00:54:30;;;;;;;;;;;14.40;99.90;;;;;;8393352;28;19929;-72
2023/05/06 00:58:32;;;;;;;;;;;14.40;99.90;;;;;;8373582;28;19928;-72
2023/05/06 01:02:34;;;;;;;;;;;14.40;99.90;;;;;;8398546;28;19925;-72
2023/05/06 01:06:57;;;;;;;;;;;14.30;99.90;;;;;;8387497;28;19935;-72
2023/05/06 01:11:08;;;;;;;;;;;14.30;99.90;;;;;;8372887;28;19971;-72
2023/05/06 01:15:20;;;;;;;;;;;14.20;99.90;;;;;;8371391;28;19960;-72
2023/05/06 01:19:35;;;;;;;;;;;14.10;99.90;;;;;;8379902;28;19925;-72
2023/05/06 01:23:56;;;;;;;;;;;14.00;99.90;;;;;;8356419;28;20277;-72
2023/05/06 01:27:58;;;;;;;;;;;14.00;99.90;;;;;;8368862;28;19925;-72
2023/05/06 01:32:13;;;;;;;;;;;14.00;99.90;;;;;;8359815;28;19924;-72
2023/05/06 01:36:34;;;;;;;;;;;13.90;99.90;;;;;;8373051;28;19924;-72
2023/05/06 01:40:36;;;;;;;;;;;13.90;99.90;;;;;;8366739;28;19925;-72
2023/05/06 01:44:38;;;;;;;;;;;13.80;99.90;;;;;;8361594;28;19931;-72
2023/05/06 01:48:40;;;;;;;;;;;13.80;99.90;;;;;;8373956;28;19924;-72
2023/05/06 01:52:42;;;;;;;;;;;13.80;99.90;;;;;;8357146;28;19928;-72
2023/05/06 01:56:43;;;;;;;;;;;13.70;99.90;;;;;;8365186;28;20359;-72
2023/05/06 02:00:45;;;;;;;;;;;13.70;99.90;;;;;;8366109;28;20023;-72
2023/05/06 02:04:46;;;;;;;;;;;13.70;99.90;;;;;;8376548;28;19991;-72
2023/05/06 02:08:48;;;;;;;;;;;13.60;99.90;;;;;;8351769;28;19928;-72
2023/05/06 02:12:50;;;;;;;;;;;13.60;99.90;;;;;;8373479;28;19929;-72
2023/05/06 02:16:52;;;;;;;;;;;13.50;99.90;;;;;;8365253;28;19968;-72
2023/05/06 02:20:53;;;;;;;;;;;13.50;99.90;;;;;;8385656;28;20023;-72
2023/05/06 02:24:55;;;;;;;;;;;13.40;99.90;;;;;;8375092;28;19928;-72
2023/05/06 02:28:56;;;;;;;;;;;13.30;99.90;;;;;;8387812;28;19924;-72
2023/05/06 02:32:58;;;;;;;;;;;13.30;99.90;;;;;;8383577;28;19939;-72
2023/05/06 02:37:00;;;;;;;;;;;13.20;99.90;;;;;;8389253;28;19931;-72
2023/05/06 02:41:02;;;;;;;;;;;13.20;99.90;;;;;;8379478;28;19983;-72
2023/05/06 02:45:04;;;;;;;;;;;13.10;99.90;;;;;;8373115;28;19929;-72
2023/05/06 02:49:06;;;;;;;;;;;13.10;99.90;;;;;;8391960;28;19932;-72
2023/05/06 02:53:09;;;;;;;;;;;13.00;99.90;;;;;;8377036;28;19931;-72
2023/05/06 02:57:11;;;;;;;;;;;13.00;99.90;;;;;;8359642;28;19929;-72
2023/05/06 03:01:12;;;;;;;;;;;12.90;99.90;;;;;;8384930;28;19932;-72
2023/05/06 03:05:14;;;;;;;;;;;12.80;99.90;;;;;;8363720;28;19966;-72
2023/05/06 03:09:15;;;;;;;;;;;12.80;99.90;;;;;;8354804;28;20004;-72
2023/05/06 03:13:17;;;;;;;;;;;12.70;99.90;;;;;;8384276;28;19924;-72
2023/05/06 03:17:19;;;;;;;;;;;12.70;99.90;;;;;;8378818;28;20354;-72
2023/05/06 03:21:20;;;;;;;;;;;12.50;99.90;;;;;;8375358;28;19932;-72
2023/05/06 03:40:32;;;;;;;;;;;12.30;99.90;;;;;;8376641;28;23136;-72
2023/05/06 03:44:34;;;;;;;;;;;12.30;99.90;;;;;;8378454;28;19971;-72
2023/05/06 03:48:36;;;;;;;;;;;12.30;99.90;;;;;;8375333;28;20006;-72
2023/05/06 03:52:37;;;;;;;;;;;12.30;99.90;;;;;;8377512;28;19971;-72
2023/05/06 03:56:39;;;;;;;;;;;12.30;99.90;;;;;;8375762;28;19928;-72
2023/05/06 04:00:41;;;;;;;;;;;12.30;99.90;;;;;;8357943;28;20327;-72
2023/05/06 04:04:42;;;;;;;;;;;12.20;99.90;;;;;;8367704;28;19929;-72
2023/05/06 04:08:44;;;;;;;;;;;12.30;99.90;;;;;;8364621;28;19924;-72
2023/05/06 04:12:46;;;;;;;;;;;12.30;99.90;;;;;;8392010;28;19929;-72
2023/05/06 04:16:47;;;;;;;;;;;12.30;99.90;;;;;;8382234;28;19925;-72
2023/05/06 04:20:49;;;;;;;;;;;12.30;99.90;;;;;;8383463;28;19975;-72
2023/05/06 04:24:53;;;;;;;;;;;12.30;99.90;;;;;;8369961;28;19982;-72
2023/05/06 04:28:55;;;;;;;;;;;12.40;99.90;;;;;;8381222;28;19931;-72
2023/05/06 04:32:56;;;;;;;;;;;12.40;99.90;;;;;;8362231;28;19960;-72
2023/05/06 04:36:58;;;;;;;;;;;12.50;99.90;;;;;;8365221;28;19967;-72
2023/05/06 04:41:00;;;;;;;;;;;12.50;99.90;;;;;;8364030;28;19929;-72
2023/05/06 04:45:02;;;;;;;;;;;12.50;99.90;;;;;;8384762;28;19999;-72
2023/05/06 04:49:04;;;;;;;;;;;12.60;99.90;;;;;;8372437;28;20369;-72
2023/05/06 04:53:05;;;;;;;;;;;12.60;99.90;;;;;;8356448;28;20040;-72
2023/05/06 04:57:07;;;;;;;;;;;12.70;99.90;;;;;;8368960;28;19931;-72
2023/05/06 05:01:10;;;;;;;;;;;12.70;99.90;;;;;;8380979;28;19924;-72
2023/05/06 05:05:12;;;;;;;;;;;12.80;99.90;;;;;;8347102;28;19931;-72
2023/05/06 05:09:14;;;;;;;;;;;12.90;99.90;;;;;;8361447;28;19932;-72
2023/05/06 05:13:16;;;;;;;;;;;13.00;99.90;;;;;;8384942;28;19924;-72
2023/05/06 05:17:17;;;;;;;;;;;13.10;99.90;;;;;;8372544;28;19925;-72
2023/05/06 05:21:19;;;;;;;;;;;13.20;99.90;;;;;;8375399;28;19975;-72
2023/05/06 05:25:21;;;;;;;;;;;13.20;99.90;;;;;;8374598;28;20203;-72
2023/05/06 05:29:23;;;;;;;;;;;13.30;99.90;;;;;;8366466;28;19928;-72
2023/05/06 05:33:25;;;;;;;;;;;13.40;99.90;;;;;;8363653;28;19932;-72
2023/05/06 05:37:27;;;;;;;;;;;13.50;99.90;;;;;;8351849;28;19964;-72
2023/05/06 05:41:28;;;;;;;;;;;13.50;99.90;;;;;;8360614;28;19932;-72
2023/05/06 05:45:30;;;;;;;;;;;13.60;99.90;;;;;;8356733;28;19939;-72
2023/05/06 05:49:32;;;;;;;;;;;13.60;99.90;;;;;;8355692;28;19932;-72
2023/05/06 05:53:33;;;;;;;;;;;13.70;99.90;;;;;;8359766;28;19932;-72
2023/05/06 05:57:35;;;;;;;;;;;13.70;99.90;;;;;;8349692;28;19932;-72
2023/05/06 06:01:37;;;;;;;;;;;13.70;99.90;;;;;;8358741;28;19925;-72
2023/05/06 06:05:39;;;;;;;;;;;13.70;99.90;;;;;;8360807;28;19974;-72
2023/05/06 06:09:40;;;;;;;;;;;13.80;99.90;;;;;;8358727;28;19975;-72
2023/05/06 06:13:42;;;;;;;;;;;13.80;99.90;;;;;;8355562;28;20011;-72
2023/05/06 06:17:43;;;;;;;;;;;13.90;99.90;;;;;;8355486;28;20023;-72
2023/05/06 06:21:45;;;;;;;;;;;13.90;99.90;;;;;;8358940;28;19932;-72
2023/05/06 06:25:47;;;;;;;;;;;13.90;99.90;;;;;;8354080;28;19972;-72
2023/05/06 06:29:48;;;;;;;;;;;14.00;99.90;;;;;;8356309;28;19935;-72
2023/05/06 06:33:50;;;;;;;;;;;14.00;99.90;;;;;;8363713;28;19933;-72
2023/05/06 06:37:52;;;;;;;;;;;14.00;99.90;;;;;;8362204;28;19971;-72
2023/05/06 06:41:57;;;;;;;;;;;14.10;99.90;;;;;;8362486;28;20245;-72
2023/05/06 06:45:59;;;;;;;;;;;14.20;99.90;;;;;;8344354;28;19925;-72
2023/05/06 06:50:01;;;;;;;;;;;14.20;99.90;;;;;;8362724;28;19928;-72
2023/05/06 06:54:02;;;;;;;;;;;14.30;99.90;;;;;;8366725;28;20347;-72
2023/05/06 06:58:04;;;;;;;;;;;14.40;99.90;;;;;;8360702;28;19937;-72
2023/05/06 07:02:05;;;;;;;;;;;14.50;99.90;;;;;;8348123;28;20419;-72
2023/05/06 07:06:07;;;;;;;;;;;14.60;99.90;;;;;;8352159;28;19939;-72
2023/05/06 07:10:15;;;;;;;;;;;14.70;99.90;;;;;;8373108;28;19977;-72
2023/05/06 07:14:17;;;;;;;;;;;14.70;99.90;;;;;;8362246;28;19961;-72
2023/05/06 07:18:19;;;;;;;;;;;14.80;99.90;;;;;;8370344;28;19928;-72
2023/05/06 07:22:21;;;;;;;;;;;14.80;99.90;;;;;;8364992;28;19932;-72
2023/05/06 07:26:22;;;;;;;;;;;14.90;99.90;;;;;;8384027;28;19972;-72
2023/05/06 07:30:24;;;;;;;;;;;15.00;99.90;;;;;;8354205;28;20284;-72
2023/05/06 07:34:26;;;;;;;;;;;15.10;99.90;;;;;;8349552;28;20020;-72
2023/05/06 07:38:28;;;;;;;;;;;15.30;99.90;;;;;;8342332;28;20283;-72
2023/05/06 07:42:29;;;;;;;;;;;15.40;99.90;;;;;;8343829;28;19929;-72
2023/05/06 07:46:31;;;;;;;;;;;15.60;99.90;;;;;;8353502;28;19944;-72
2023/05/06 07:50:33;;;;;;;;;;;15.70;99.90;;;;;;8366032;28;19929;-72
2023/05/06 07:54:34;;;;;;;;;;;15.80;99.90;;;;;;8361491;28;19979;-72
2023/05/06 07:58:36;;;;;;;;;;;15.90;99.90;;;;;;8361833;28;19932;-72
2023/05/06 08:02:42;;;;;;;;;;;16.10;99.90;;;;;;8353681;28;19979;-72
2023/05/06 08:06:44;;;;;;;;;;;16.10;99.90;;;;;;8364307;28;20303;-72
2023/05/06 08:10:46;;;;;;;;;;;16.20;99.90;;;;;;8365690;28;19960;-72
2023/05/06 08:14:47;;;;;;;;;;;16.30;99.90;;;;;;8358178;28;20034;-72
2023/05/06 08:18:49;;;;;;;;;;;16.50;99.90;;;;;;8357782;28;19940;-72
2023/05/06 08:22:51;;;;;;;;;;;16.60;99.90;;;;;;8356055;28;19932;-72
2023/05/06 08:26:52;;;;;;;;;;;16.70;99.90;;;;;;8358168;28;20292;-72
2023/05/06 08:30:54;;;;;;;;;;;16.80;99.90;;;;;;8354998;28;20285;-72
2023/05/06 08:34:56;;;;;;;;;;;17.00;99.90;;;;;;8357403;28;19956;-72
2023/05/06 08:38:57;;;;;;;;;;;17.20;99.90;;;;;;8338394;28;19951;-72
2023/05/06 08:43:01;;;;;;;;;;;17.30;99.90;;;;;;8342124;28;19936;-72
2023/05/06 08:47:03;;;;;;;;;;;17.50;99.90;;;;;;8358909;28;19925;-72
2023/05/06 08:51:05;;;;;;;;;;;17.50;99.90;;;;;;8349832;28;19935;-72
2023/05/06 08:55:08;;;;;;;;;;;17.50;99.90;;;;;;8355200;28;20373;-72
2023/05/06 08:59:12;;;;;;;;;;;17.60;99.90;;;;;;8366951;28;20064;-72
2023/05/06 09:03:14;;;;;;;;;;;17.70;99.90;;;;;;8355097;28;19928;-72
2023/05/06 09:07:17;;;;;;;;;;;17.80;99.90;;;;;;8341385;28;19929;-72
2023/05/06 09:11:23;;;;;;;;;;;17.90;99.90;;;;;;8367680;28;19932;-72
2023/05/06 09:15:27;;;;;;;;;;;18.10;99.90;;;;;;8360573;28;19960;-72
2023/05/06 09:19:29;;;;;;;;;;;18.30;99.90;;;;;;8358896;28;20355;-73
2023/05/06 09:23:31;;;;;;;;;;;18.40;99.90;;;;;;8356078;28;19940;-72
2023/05/06 09:27:33;;;;;;;;;;;18.40;99.90;;;;;;8356385;28;19960;-73
2023/05/06 09:31:42;;;;;;;;;;;18.50;99.90;;;;;;8345761;28;19928;-71
2023/05/06 09:35:44;;;;;;;;;;;18.60;99.90;;;;;;8357819;28;19959;-72
2023/05/06 09:39:46;;;;;;;;;;;18.70;99.90;;;;;;8368249;28;19936;-71
2023/05/06 09:43:48;;;;;;;;;;;18.90;99.90;;;;;;8360082;28;19925;-72
2023/05/06 09:47:52;;;;;;;;;;;19.10;99.90;;;;;;8360699;28;19946;-72
2023/05/06 09:51:55;;;;;;;;;;;19.40;99.90;;;;;;8356688;28;19968;-71
2023/05/06 09:55:59;;;;;;;;;;;19.60;99.90;;;;;;8358156;28;20023;-71
2023/05/06 10:00:01;;;;;;;;;;;19.90;99.90;;;;;;8351140;28;19979;-72
2023/05/06 10:04:04;;;;;;;;;;;20.00;99.90;;;;;;8354968;28;19971;-71
2023/05/06 10:08:08;;;;;;;;;;;20.20;99.90;;;;;;8347680;28;19975;-72
2023/05/06 10:12:09;;;;;;;;;;;20.40;99.90;;;;;;8361509;28;19931;-72
2023/05/06 10:16:12;;;;;;;;;;;20.40;99.90;;;;;;8354382;28;19939;-72
2023/05/06 10:20:16;;;;;;;;;;;20.40;99.90;;;;;;8353724;28;19925;-71
2023/05/06 10:24:20;;;;;;;;;;;20.50;99.90;;;;;;8355799;28;19928;-72
2023/05/06 10:28:22;;;;;;;;;;;20.60;99.90;;;;;;8353931;28;20015;-72
2023/05/06 10:32:31;;;;;;;;;;;20.80;99.90;;;;;;8353601;28;19939;-72
2023/05/06 10:36:35;;;;;;;;;;;20.80;99.90;;;;;;8346585;28;19929;-71
2023/05/06 10:40:37;;;;;;;;;;;21.00;99.90;;;;;;8366929;28;19924;-71
2023/05/06 10:44:58;;;;;;;;;;;21.20;99.90;;;;;;8356144;28;19948;-72
2023/05/06 10:49:09;;;;;;;;;;;21.20;99.90;;;;;;8334363;28;20066;-72
2023/05/06 10:53:11;;;;;;;;;;;21.40;99.90;;;;;;8358650;28;20834;-71
2023/05/06 10:57:13;;;;;;;;;;;21.60;99.90;;;;;;8362281;28;20039;-72
2023/05/06 11:01:15;;;;;;;;;;;21.60;99.90;;;;;;8360065;28;19935;-71
2023/05/06 11:05:17;;;;;;;;;;;21.70;99.90;;;;;;8359751;28;21052;-71
2023/05/06 11:09:19;;;;;;;;;;;21.70;99.90;;;;;;8352520;28;19928;-71
2023/05/06 11:13:27;;;;;;;;;;;21.60;99.90;;;;;;8367705;28;19932;-71
2023/05/06 11:17:30;;;;;;;;;;;21.90;99.90;;;;;;8367048;28;19932;-72
2023/05/06 11:21:32;;;;;;;;;;;22.20;99.90;;;;;;8365687;28;19932;-72
2023/05/06 11:25:45;;;;;;;;;;;22.20;99.90;;;;;;8365420;28;19929;-71
2023/05/06 11:29:47;;;;;;;;;;;22.40;99.90;;;;;;8357075;28;19971;-71
2023/05/06 11:33:51;;;;;;;;;;;22.50;99.90;;;;;;8343394;28;19924;-71
2023/05/06 11:37:52;;;;;;;;;;;22.50;99.90;;;;;;8366723;28;20963;-71
2023/05/06 11:41:54;;;;;;;;;;;22.50;99.90;;;;;;8373477;28;19928;-71
2023/05/06 11:45:57;;;;;;;;;;;22.70;99.90;;;;;;8346411;28;19929;-71
2023/05/06 11:50:06;;;;;;;;;;;23.00;99.90;;;;;;8368550;28;19925;-71
2023/05/06 11:54:09;;;;;;;;;;;23.20;99.90;;;;;;8365973;28;19929;-71
2023/05/06 11:58:13;;;;;;;;;;;23.30;99.90;;;;;;8372240;28;20020;-71
2023/05/06 12:02:17;;;;;;;;;;;23.40;99.90;;;;;;8358884;28;20384;-71
2023/05/06 12:06:30;;;;;;;;;;;23.30;99.90;;;;;;8360628;28;20617;-72
2023/05/06 12:10:32;;;;;;;;;;;23.50;99.90;;;;;;8343913;28;20393;-72
2023/05/06 12:14:34;;;;;;;;;;;23.50;99.90;;;;;;8363617;28;19932;-71
2023/05/06 12:18:36;;;;;;;;;;;23.40;99.90;;;;;;8363991;28;20012;-72
2023/05/06 12:22:38;;;;;;;;;;;23.10;99.90;;;;;;8359761;28;19925;-71
2023/05/06 12:26:47;;;;;;;;;;;22.90;99.90;;;;;;8358096;28;19931;-71
2023/05/06 12:30:49;;;;;;;;;;;23.00;99.90;;;;;;8339680;28;20023;-71
2023/05/06 12:34:50;;;;;;;;;;;23.10;99.90;;;;;;8359298;28;19932;-71
2023/05/06 12:38:53;;;;;;;;;;;23.20;99.90;;;;;;8359919;28;19968;-71
2023/05/06 12:42:55;;;;;;;;;;;23.40;99.90;;;;;;8364993;28;20616;-71
2023/05/06 12:46:58;;;;;;;;;;;23.60;99.90;;;;;;8356055;28;20287;-72
2023/05/06 12:50:59;;;;;;;;;;;23.40;99.90;;;;;;8364933;28;19925;-72
2023/05/06 12:55:01;;;;;;;;;;;23.30;99.90;;;;;;8360017;28;19929;-72
2023/05/06 12:59:03;;;;;;;;;;;23.50;99.90;;;;;;8356976;28;19932;-71
2023/05/06 13:03:05;;;;;;;;;;;23.80;99.90;;;;;;8356940;28;19925;-71
2023/05/06 13:07:06;;;;;;;;;;;24.00;99.90;;;;;;8356143;28;19925;-72
2023/05/06 13:11:08;;;;;;;;;;;24.00;99.90;;;;;;8358974;28;20023;-72
2023/05/06 13:15:10;;;;;;;;;;;24.00;99.90;;;;;;8356486;28;19962;-72
2023/05/06 13:19:12;;;;;;;;;;;24.20;99.90;;;;;;8359819;28;20023;-72
2023/05/06 13:23:33;;;;;;;;;;;23.80;99.90;;;;;;8352631;28;20132;-71
2023/05/06 13:27:35;;;;;;;;;;;23.50;99.90;;;;;;8337962;28;20619;-72
2023/05/06 13:31:37;;;;;;;;;;;23.40;99.90;;;;;;8358780;28;19931;-71
2023/05/06 13:35:38;;;;;;;;;;;23.50;99.90;;;;;;8349062;28;19928;-71
2023/05/06 13:39:40;;;;;;;;;;;23.60;99.90;;;;;;8359761;28;19925;-72
2023/05/06 13:43:42;;;;;;;;;;;23.60;99.90;;;;;;8362236;28;19968;-72
2023/05/06 13:47:43;;;;;;;;;;;23.50;99.90;;;;;;8355280;28;19924;-72
2023/05/06 13:51:45;;;;;;;;;;;23.50;99.90;;;;;;8363038;28;19924;-72
2023/05/06 13:55:47;;;;;;;;;;;23.60;99.90;;;;;;8351771;28;20396;-71
2023/05/06 13:59:48;;;;;;;;;;;23.70;99.90;;;;;;8356312;28;19925;-71
2023/05/06 14:03:51;;;;;;;;;;;23.90;99.90;;;;;;8346958;28;19979;-72
2023/05/06 14:07:53;;;;;;;;;;;24.10;99.90;;;;;;8351698;28;19925;-72
2023/05/06 14:11:54;;;;;;;;;;;24.60;99.90;;;;;;8339072;28;23676;-72
2023/05/06 14:15:56;;;;;;;;;;;24.90;99.90;;;;;;8378994;28;20031;-72
2023/05/06 14:19:58;;;;;;;;;;;24.90;99.90;;;;;;8353882;28;19924;-71
2023/05/06 14:23:59;;;;;;;;;;;25.00;99.90;;;;;;8368639;28;19986;-72
2023/05/06 14:28:01;;;;;;;;;;;25.00;99.90;;;;;;8357062;28;19963;-71
2023/05/06 14:32:03;;;;;;;;;;;25.00;99.90;;;;;;8354002;28;19980;-72
2023/05/06 14:36:05;;;;;;;;;;;25.00;99.90;;;;;;8355239;28;19931;-72
2023/05/06 14:40:07;;;;;;;;;;;24.80;99.90;;;;;;8343720;28;20386;-71
2023/05/06 14:44:08;;;;;;;;;;;24.40;99.90;;;;;;8365730;28;19964;-71
2023/05/06 14:48:10;;;;;;;;;;;24.20;99.90;;;;;;8345954;28;19939;-71
2023/05/06 14:52:12;;;;;;;;;;;24.20;99.90;;;;;;8378662;28;19972;-72
2023/05/06 14:56:14;;;;;;;;;;;24.00;99.90;;;;;;8360991;28;19967;-71
2023/05/06 15:00:15;;;;;;;;;;;23.80;99.90;;;;;;8346404;28;19932;-71
2023/05/06 15:04:17;;;;;;;;;;;23.70;99.90;;;;;;8358855;28;20055;-71
2023/05/06 15:08:19;;;;;;;;;;;23.60;99.90;;;;;;8355562;28;20281;-71
2023/05/06 15:12:21;;;;;;;;;;;23.50;99.90;;;;;;8362480;28;19925;-71
2023/05/06 15:16:22;;;;;;;;;;;23.40;99.90;;;;;;8360451;28;20563;-71
2023/05/06 15:20:24;;;;;;;;;;;23.20;99.90;;;;;;8363037;28;20389;-71
2023/05/06 15:24:26;;;;;;;;;;;23.20;99.90;;;;;;8362568;28;19932;-71
2023/05/06 15:28:28;;;;;;;;;;;23.30;99.90;;;;;;8353539;28;19939;-71
2023/05/06 15:32:30;;;;;;;;;;;23.30;99.90;;;;;;8367383;28;19924;-71
2023/05/06 15:36:31;;;;;;;;;;;23.30;99.90;;;;;;8360377;28;20311;-71
2023/05/06 15:40:33;;;;;;;;;;;23.30;99.90;;;;;;8359979;28;19933;-71
2023/05/06 15:44:35;;;;;;;;;;;23.30;99.90;;;;;;8359492;28;19975;-71
2023/05/06 15:48:38;;;;;;;;;;;23.30;99.90;;;;;;8362286;28;19928;-71
2023/05/06 15:52:43;;;;;;;;;;;23.20;99.90;;;;;;8347245;28;20347;-71
2023/05/06 15:56:45;;;;;;;;;;;23.00;99.90;;;;;;8360817;28;19928;-71
2023/05/06 16:00:47;;;;;;;;;;;22.80;99.90;;;;;;8341863;28;19928;-71
2023/05/06 16:04:49;;;;;;;;;;;22.60;99.80;;;;;;8356252;28;20653;-71
2023/05/06 16:08:50;;;;;;;;;;;22.50;99.90;;;;;;8360023;28;19940;-71
2023/05/06 16:12:52;;;;;;;;;;;22.50;99.90;;;;;;8364158;28;19924;-71
2023/05/06 16:16:54;;;;;;;;;;;22.50;99.90;;;;;;8360059;28;19964;-71
2023/05/06 16:20:56;;;;;;;;;;;22.50;99.90;;;;;;8358094;28;19940;-71
2023/05/06 16:24:57;;;;;;;;;;;22.40;99.90;;;;;;8357178;28;20383;-71
2023/05/06 16:29:00;;;;;;;;;;;22.30;99.90;;;;;;8351557;28;21433;-71
2023/05/06 16:33:02;;;;;;;;;;;22.30;99.90;;;;;;8359143;28;20431;-71
2023/05/06 16:37:06;;;;;;;;;;;22.30;99.90;;;;;;8361004;28;20368;-71
2023/05/06 16:41:07;;;;;;;;;;;22.30;99.90;;;;;;8340298;28;19991;-71
2023/05/06 16:45:10;;;;;;;;;;;22.30;99.90;;;;;;8360274;28;19924;-71
2023/05/06 16:49:12;;;;;;;;;;;22.20;99.90;;;;;;8359842;28;19931;-71
2023/05/06 16:53:16;;;;;;;;;;;22.10;99.90;;;;;;8361318;28;19939;-71
2023/05/06 16:57:18;;;;;;;;;;;22.00;99.90;;;;;;8359782;28;19925;-71
2023/05/06 17:01:20;;;;;;;;;;;21.90;99.90;;;;;;8372390;28;19928;-71
2023/05/06 17:05:21;;;;;;;;;;;21.80;99.90;;;;;;8348944;28;19928;-71
2023/05/06 17:09:23;;;;;;;;;;;21.80;99.90;;;;;;8364370;28;20477;-71
2023/05/06 17:13:25;;;;;;;;;;;21.70;99.90;;;;;;8370193;28;19931;-71
2023/05/06 17:17:27;;;;;;;;;;;21.60;99.90;;;;;;8339684;28;20296;-71
2023/05/06 17:21:30;;;;;;;;;;;21.40;99.90;;;;;;8340494;28;19929;-71
2023/05/06 17:25:32;;;;;;;;;;;20.50;99.90;;;;;;8351692;28;20112;-71
2023/05/06 17:29:33;;;;;;;;;;;19.40;99.90;;;;;;8349316;28;19939;-71
2023/05/06 17:33:35;;;;;;;;;;;18.70;99.90;;;;;;8360043;28;20409;-71
2023/05/06 17:37:37;;;;;;;;;;;18.20;99.90;;;;;;8343021;28;19946;-71
2023/05/06 17:41:39;;;;;;;;;;;17.80;99.90;;;;;;8362513;28;19924;-70
2023/05/06 17:45:41;;;;;;;;;;;17.50;99.90;;;;;;8360964;28;19940;-71
2023/05/06 17:49:43;;;;;;;;;;;17.40;99.90;;;;;;8337384;28;19968;-71
2023/05/06 17:53:44;;;;;;;;;;;17.30;99.90;;;;;;8355546;28;19960;-71
2023/05/06 17:57:46;;;;;;;;;;;17.30;99.90;;;;;;8351290;28;19971;-71
2023/05/06 18:01:49;;;;;;;;;;;17.30;99.90;;;;;;8354229;28;20005;-71
2023/05/06 18:05:50;;;;;;;;;;;17.20;99.90;;;;;;8351104;28;19928;-71
2023/05/06 18:09:52;;;;;;;;;;;17.20;99.90;;;;;;8351131;28;20036;-71
2023/05/06 18:13:54;;;;;;;;;;;17.30;99.90;;;;;;8359051;28;20587;-71
2023/05/06 18:17:55;;;;;;;;;;;17.20;99.90;;;;;;8358587;28;19980;-71
2023/05/06 18:21:57;;;;;;;;;;;17.30;99.90;;;;;;8379963;28;20380;-71
2023/05/06 18:26:02;;;;;;;;;;;17.40;99.90;;;;;;8364081;28;20343;-71
2023/05/06 18:30:03;;;;;;;;;;;17.50;99.90;;;;;;8366627;28;20152;-71
2023/05/06 18:34:05;;;;;;;;;;;17.60;99.90;;;;;;8361002;28;20420;-71
2023/05/06 18:38:08;;;;;;;;;;;17.60;99.90;;;;;;8363158;28;19979;-71
2023/05/06 18:42:12;;;;;;;;;;;17.60;99.90;;;;;;8363152;28;19929;-71
2023/05/06 18:46:14;;;;;;;;;;;17.60;99.90;;;;;;8366887;28;19933;-71
2023/05/06 18:50:15;;;;;;;;;;;17.70;99.90;;;;;;8367317;28;19995;-71
2023/05/06 18:54:17;;;;;;;;;;;17.80;99.90;;;;;;8358896;28;20419;-71
2023/05/06 18:58:19;;;;;;;;;;;17.90;99.90;;;;;;8363008;28;19939;-71
2023/05/06 19:02:21;;;;;;;;;;;18.00;99.90;;;;;;8359825;28;20310;-71
2023/05/06 19:06:22;;;;;;;;;;;18.10;99.90;;;;;;8372210;28;20279;-71
2023/05/06 19:10:24;;;;;;;;;;;18.20;99.90;;;;;;8364142;28;19987;-71
2023/05/06 19:19:30;;;;;;;;;;;18.30;99.90;;;;;;8359470;28;19928;-71
2023/05/06 19:23:31;;;;;;;;;;;18.20;99.90;;;;;;8355251;28;19928;-71
2023/05/06 19:27:33;;;;;;;;;;;18.20;99.90;;;;;;8342775;28;20372;-71
2023/05/06 19:31:34;;;;;;;;;;;18.20;99.90;;;;;;8364904;28;20281;-72
2023/05/06 19:35:38;;;;;;;;;;;18.20;99.90;;;;;;8358318;28;19984;-71
2023/05/06 19:39:39;;;;;;;;;;;18.20;99.90;;;;;;8361429;28;20450;-71
2023/05/06 19:43:42;;;;;;;;;;;18.20;99.90;;;;;;8359154;28;20043;-71
2023/05/06 19:47:44;;;;;;;;;;;18.10;99.90;;;;;;8341488;28;20130;-71
2023/05/06 19:51:46;;;;;;;;;;;18.10;99.90;;;;;;8348126;28;19925;-71
2023/05/06 19:55:48;;;;;;;;;;;18.10;99.90;;;;;;8370392;28;20368;-70
2023/05/06 19:59:49;;;;;;;;;;;18.00;99.90;;;;;;8375316;28;19936;-71
2023/05/06 20:03:51;;;;;;;;;;;18.00;99.90;;;;;;8354890;28;19929;-71
2023/05/06 20:07:54;;;;;;;;;;;18.00;99.90;;;;;;8343295;28;19929;-71
2023/05/06 20:11:55;;;;;;;;;;;18.00;99.90;;;;;;8360435;28;20019;-71
2023/05/06 20:15:57;;;;;;;;;;;18.00;99.90;;;;;;8344860;28;19928;-71
2023/05/06 20:19:59;;;;;;;;;;;17.90;99.90;;;;;;8360792;28;19970;-71
2023/05/06 20:24:02;;;;;;;;;;;17.90;99.90;;;;;;8358139;28;19924;-71
2023/05/06 20:28:05;;;;;;;;;;;17.90;99.90;;;;;;8358208;28;19928;-71
2023/05/06 20:32:07;;;;;;;;;;;17.90;99.90;;;;;;8345702;28;20380;-71
2023/05/06 20:36:08;;;;;;;;;;;17.80;99.90;;;;;;8352850;28;19950;-71
2023/05/06 20:40:10;;;;;;;;;;;17.80;99.90;;;;;;8340599;28;19944;-71
2023/05/06 20:44:12;;;;;;;;;;;17.80;99.90;;;;;;8341526;28;20019;-71
2023/05/06 20:48:14;;;;;;;;;;;17.80;99.90;;;;;;8341638;28;19928;-71
2023/05/06 20:52:16;;;;;;;;;;;17.70;99.90;;;;;;8360632;28;19932;-71
2023/05/06 20:56:23;;;;;;;;;;;17.70;99.90;;;;;;8360360;28;20015;-71
2023/05/06 21:00:25;;;;;;;;;;;17.60;99.90;;;;;;8367263;28;19932;-71
2023/05/06 21:04:26;;;;;;;;;;;17.60;99.90;;;;;;8372262;28;19931;-71
2023/05/06 21:08:28;;;;;;;;;;;17.60;99.90;;;;;;8374633;28;19925;-71
2023/05/06 21:12:30;;;;;;;;;;;17.60;99.90;;;;;;8384587;28;19924;-71
2023/05/06 21:21:29;;;;;;;;;;;17.50;99.90;;;;;;8380511;28;19969;-71
2023/05/06 21:25:31;;;;;;;;;;;17.40;99.90;;;;;;8378461;28;20299;-71
2023/05/06 21:29:32;;;;;;;;;;;17.40;99.90;;;;;;8393731;28;20011;-71
2023/05/06 21:33:34;;;;;;;;;;;17.40;99.90;;;;;;8369536;28;19931;-71
2023/05/06 21:37:36;;;;;;;;;;;17.30;99.90;;;;;;8384948;28;19964;-71
2023/05/06 21:41:38;;;;;;;;;;;17.30;99.90;;;;;;8384025;28;19924;-71
2023/05/06 21:45:39;;;;;;;;;;;17.30;99.90;;;;;;8371144;28;19935;-71
2023/05/06 21:49:41;;;;;;;;;;;17.20;99.90;;;;;;8391863;28;19924;-71
2023/05/06 21:53:43;;;;;;;;;;;17.20;99.90;;;;;;8381361;28;19931;-71
2023/05/06 21:57:45;;;;;;;;;;;17.20;99.90;;;;;;8372940;28;19931;-71
2023/05/06 22:01:48;;;;;;;;;;;17.10;99.90;;;;;;8366129;28;20443;-71
2023/05/06 22:05:50;;;;;;;;;;;17.10;99.90;;;;;;8372691;28;19924;-71
2023/05/06 22:09:52;;;;;;;;;;;17.10;99.90;;;;;;8392289;28;19971;-71
2023/05/06 22:13:53;;;;;;;;;;;17.00;99.90;;;;;;8379220;28;20307;-71
2023/05/06 22:17:57;;;;;;;;;;;17.00;99.90;;;;;;8380114;28;19939;-71
2023/05/06 22:21:59;;;;;;;;;;;16.90;99.90;;;;;;8389310;28;20408;-71
2023/05/06 22:26:00;;;;;;;;;;;16.90;99.90;;;;;;8380755;28;19932;-71
2023/05/06 22:30:02;;;;;;;;;;;16.90;99.90;;;;;;8370235;28;19997;-71
2023/05/06 22:34:04;;;;;;;;;;;16.90;99.90;;;;;;8402042;28;19964;-71
2023/05/06 22:38:05;;;;;;;;;;;16.90;99.90;;;;;;8381915;28;19935;-71
2023/05/06 22:42:07;;;;;;;;;;;16.90;99.90;;;;;;8386521;28;19931;-71
2023/05/06 22:46:09;;;;;;;;;;;16.90;99.90;;;;;;8385830;28;19924;-72
2023/05/06 22:50:11;;;;;;;;;;;16.90;99.90;;;;;;8375113;28;20437;-73
2023/05/06 22:54:12;;;;;;;;;;;16.90;99.90;;;;;;8360511;28;19925;-73
2023/05/06 22:58:14;;;;;;;;;;;16.90;99.90;;;;;;8383302;28;20367;-73
2023/05/06 23:02:15;;;;;;;;;;;16.90;99.90;;;;;;8376613;28;19936;-73
2023/05/06 23:06:17;;;;;;;;;;;16.90;99.90;;;;;;8360766;28;20390;-73
2023/05/06 23:10:19;;;;;;;;;;;16.90;99.90;;;;;;8405507;28;19925;-73
2023/05/06 23:14:20;;;;;;;;;;;16.90;99.90;;;;;;8389932;28;20380;-73
2023/05/06 23:18:22;;;;;;;;;;;16.80;99.90;;;;;;8377135;28;19973;-71
2023/05/06 23:22:25;;;;;;;;;;;16.80;99.90;;;;;;8388821;28;19936;-70
2023/05/06 23:26:27;;;;;;;;;;;16.80;99.90;;;;;;8382817;28;19948;-71
2023/05/06 23:30:28;;;;;;;;;;;16.80;99.90;;;;;;8390291;28;19925;-71
2023/05/06 23:34:30;;;;;;;;;;;16.70;99.90;;;;;;8403292;28;19924;-71
2023/05/06 23:38:32;;;;;;;;;;;16.70;99.90;;;;;;8374381;28;19968;-70
2023/05/06 23:57:43;;;;;;;;;;;16.60;99.90;;;;;;8388784;28;19923;-71
